createdAt,value
2022-10-13T00:00:15.447Z,84.36
2022-10-13T00:02:43.073Z,84.76
2022-10-13T00:05:11.047Z,84.22
2022-10-13T00:07:38.712Z,84.38
2022-10-13T00:10:07.013Z,84.78
2022-10-13T00:12:37.413Z,84.63
2022-10-13T00:15:06.657Z,84.92
2022-10-13T00:17:36.335Z,85.02
2022-10-13T00:20:04.097Z,84.71
2022-10-13T00:22:32.132Z,85.00
2022-10-13T00:24:59.822Z,85.14
2022-10-13T00:27:27.591Z,84.93
2022-10-13T00:29:56.864Z,85.16
2022-10-13T00:32:24.567Z,84.56
2022-10-13T00:34:52.322Z,85.22
2022-10-13T00:37:19.988Z,85.01
2022-10-13T00:39:47.692Z,84.86
2022-10-13T00:42:15.485Z,85.22
2022-10-13T00:45:21.470Z,84.95
2022-10-13T00:47:52.551Z,85.16
2022-10-13T00:50:23.695Z,84.78
2022-10-13T00:52:54.054Z,84.73
2022-10-13T00:55:25.238Z,84.77
2022-10-13T00:57:55.093Z,84.56
2022-10-13T01:00:25.286Z,84.53
2022-10-13T01:02:53.304Z,84.76
2022-10-13T01:05:22.733Z,84.94
2022-10-13T01:07:51.999Z,85.08
2022-10-13T01:10:33.437Z,84.93
2022-10-13T01:13:07.952Z,84.72
2022-10-13T01:15:43.359Z,85.02
2022-10-13T01:18:20.941Z,84.84
2022-10-13T01:21:21.039Z,84.84
2022-10-13T01:24:19.918Z,84.42
2022-10-13T01:27:05.744Z,84.60
2022-10-13T01:30:03.094Z,84.66
2022-10-13T01:32:37.193Z,84.78
2022-10-13T01:35:10.653Z,84.81
2022-10-13T01:37:47.606Z,84.59
2022-10-13T01:40:25.635Z,84.88
2022-10-13T01:43:00.183Z,84.64
2022-10-13T01:45:33.196Z,85.09
2022-10-13T01:48:03.625Z,84.88
2022-10-13T01:50:33.414Z,84.62
2022-10-13T01:53:03.831Z,85.22
2022-10-13T01:55:32.030Z,84.55
2022-10-13T01:57:59.689Z,84.96
2022-10-13T02:00:32.070Z,84.93
2022-10-13T02:03:12.599Z,84.96
2022-10-13T02:05:49.246Z,84.80
2022-10-13T02:08:25.728Z,84.72
2022-10-13T02:11:02.625Z,84.97
2022-10-13T02:13:33.558Z,84.84
2022-10-13T02:16:03.262Z,85.06
2022-10-13T02:18:34.202Z,84.71
2022-10-13T02:21:03.523Z,84.80
2022-10-13T02:23:31.979Z,85.21
2022-10-13T02:26:01.285Z,84.78
2022-10-13T02:28:29.666Z,85.26
2022-10-13T02:30:57.997Z,85.12
2022-10-13T02:33:27.054Z,84.83
2022-10-13T02:35:54.714Z,85.25
2022-10-13T02:38:22.779Z,85.15
2022-10-13T02:40:50.412Z,85.20
2022-10-13T02:43:18.088Z,84.93
2022-10-13T02:45:45.770Z,85.27
2022-10-13T02:48:13.509Z,85.15
2022-10-13T02:50:42.571Z,85.13
2022-10-13T02:53:10.231Z,85.11
2022-10-13T02:55:37.890Z,85.31
2022-10-13T02:58:05.703Z,85.24
2022-10-13T03:00:33.502Z,84.98
2022-10-13T03:03:01.351Z,84.81
2022-10-13T03:05:29.000Z,85.11
2022-10-13T03:07:58.176Z,84.90
2022-10-13T03:10:26.080Z,85.10
2022-10-13T03:12:55.362Z,84.92
2022-10-13T03:15:23.611Z,85.24
2022-10-13T03:17:51.545Z,84.79
2022-10-13T03:20:19.249Z,84.57
2022-10-13T03:22:49.702Z,84.65
2022-10-13T03:25:19.224Z,85.02
2022-10-13T03:27:46.839Z,84.87
2022-10-13T03:30:14.769Z,84.51
2022-10-13T03:32:42.441Z,84.49
2022-10-13T03:35:10.299Z,84.63
2022-10-13T03:37:37.957Z,84.89
2022-10-13T03:40:06.757Z,84.61
2022-10-13T03:42:38.247Z,84.63
2022-10-13T03:45:07.099Z,84.56
2022-10-13T03:47:36.124Z,84.82
2022-10-13T03:50:05.418Z,85.11
2022-10-13T03:52:33.114Z,84.74
2022-10-13T03:55:00.829Z,84.57
2022-10-13T03:57:28.439Z,84.20
2022-10-13T03:59:58.060Z,84.45
2022-10-13T04:02:25.782Z,84.40
2022-10-13T04:04:53.701Z,84.55
2022-10-13T04:07:21.402Z,84.84
2022-10-13T04:09:49.117Z,84.79
2022-10-13T04:12:20.572Z,84.68
2022-10-13T04:14:48.727Z,84.88
2022-10-13T04:17:17.766Z,84.60
2022-10-13T04:19:45.690Z,84.59
2022-10-13T04:22:13.349Z,84.58
2022-10-13T04:24:41.071Z,84.49
2022-10-13T04:27:08.738Z,84.44
2022-10-13T04:29:36.509Z,84.52
2022-10-13T04:32:04.336Z,84.49
2022-10-13T04:34:33.380Z,84.82
2022-10-13T04:37:01.079Z,84.56
2022-10-13T04:39:28.844Z,84.57
2022-10-13T04:41:56.815Z,84.38
2022-10-13T04:44:24.491Z,84.77
2022-10-13T04:46:52.145Z,84.37
2022-10-13T04:49:19.842Z,84.85
2022-10-13T04:51:48.894Z,84.66
2022-10-13T04:54:16.679Z,84.84
2022-10-13T04:56:45.654Z,84.58
2022-10-13T04:59:13.419Z,84.45
2022-10-13T05:01:41.107Z,84.75
2022-10-13T05:04:09.382Z,84.96
2022-10-13T05:06:58.875Z,84.81
2022-10-13T05:09:29.048Z,84.79
2022-10-13T05:11:57.407Z,84.59
2022-10-13T05:14:25.224Z,84.85
2022-10-13T05:16:52.914Z,84.52
2022-10-13T05:19:21.310Z,84.46
2022-10-13T05:21:49.004Z,84.40
2022-10-13T05:24:16.672Z,84.47
2022-10-13T05:26:45.645Z,84.59
2022-10-13T05:29:13.251Z,84.80
2022-10-13T05:31:42.174Z,84.48
2022-10-13T05:34:10.369Z,84.54
2022-10-13T05:36:38.019Z,84.51
2022-10-13T05:39:08.312Z,84.64
2022-10-13T05:41:35.967Z,84.46
2022-10-13T05:44:09.024Z,84.57
2022-10-13T05:46:37.325Z,84.41
2022-10-13T05:49:05.187Z,84.65
2022-10-13T05:51:35.676Z,84.51
2022-10-13T05:54:07.867Z,84.40
2022-10-13T05:56:40.917Z,84.62
2022-10-13T05:59:14.360Z,84.68
2022-10-13T06:01:43.115Z,84.68
2022-10-13T06:04:16.012Z,84.74
2022-10-13T06:06:43.698Z,84.51
2022-10-13T06:09:11.695Z,84.93
2022-10-13T06:11:39.667Z,84.62
2022-10-13T06:14:07.526Z,84.64
2022-10-13T06:16:37.452Z,84.61
2022-10-13T06:19:05.475Z,84.46
2022-10-13T06:21:35.042Z,84.44
2022-10-13T06:24:03.064Z,84.31
2022-10-13T06:26:30.931Z,84.51
2022-10-13T06:28:59.930Z,84.16
2022-10-13T06:31:28.078Z,84.17
2022-10-13T06:33:57.078Z,84.31
2022-10-13T06:36:24.719Z,84.24
2022-10-13T06:38:52.555Z,84.01
2022-10-13T06:41:20.351Z,84.29
2022-10-13T06:43:48.989Z,83.85
2022-10-13T06:46:16.696Z,83.85
2022-10-13T06:48:44.397Z,83.92
2022-10-13T06:51:13.738Z,83.99
2022-10-13T06:53:41.397Z,84.17
2022-10-13T06:56:10.364Z,84.08
2022-10-13T06:58:38.688Z,83.70
2022-10-13T07:01:07.159Z,83.98
2022-10-13T07:03:34.886Z,84.10
2022-10-13T07:06:03.415Z,83.95
2022-10-13T07:08:33.047Z,83.84
2022-10-13T07:11:07.523Z,83.95
2022-10-13T07:13:37.671Z,83.78
2022-10-13T07:16:08.435Z,83.53
2022-10-13T07:18:36.567Z,83.36
2022-10-13T07:21:04.867Z,83.12
2022-10-13T07:23:34.383Z,82.86
2022-10-13T07:26:02.159Z,82.54
2022-10-13T07:28:29.972Z,81.75
2022-10-13T07:31:00.264Z,81.40
2022-10-13T07:33:28.230Z,81.18
2022-10-13T07:35:56.069Z,81.19
2022-10-13T07:38:23.895Z,81.00
2022-10-13T07:40:52.902Z,80.80
2022-10-13T07:43:20.542Z,80.95
2022-10-13T07:45:48.563Z,80.82
2022-10-13T07:48:16.620Z,80.43
2022-10-13T07:50:44.300Z,80.35
2022-10-13T07:53:11.991Z,80.15
2022-10-13T07:55:39.699Z,80.30
2022-10-13T07:58:10.761Z,80.24
2022-10-13T08:00:38.424Z,79.78
2022-10-13T08:03:06.125Z,79.68
2022-10-13T08:05:37.841Z,79.53
2022-10-13T08:08:05.612Z,79.50
2022-10-13T08:10:33.291Z,79.40
2022-10-13T08:13:00.949Z,79.21
2022-10-13T08:15:30.040Z,79.24
2022-10-13T08:17:57.907Z,79.47
2022-10-13T08:20:40.967Z,79.36
2022-10-13T08:23:11.812Z,79.28
2022-10-13T08:25:43.676Z,79.76
2022-10-13T08:28:18.696Z,79.80
2022-10-13T08:30:48.378Z,79.86
2022-10-13T08:33:16.189Z,79.58
2022-10-13T08:35:43.900Z,79.36
2022-10-13T08:38:11.658Z,79.32
2022-10-13T08:40:40.201Z,79.31
2022-10-13T08:43:08.233Z,78.73
2022-10-13T08:45:41.392Z,78.62
2022-10-13T08:48:16.896Z,78.08
2022-10-13T08:50:46.866Z,77.92
2022-10-13T08:53:19.176Z,77.68
2022-10-13T08:55:49.678Z,77.47
2022-10-13T08:58:20.790Z,77.49
2022-10-13T09:00:48.449Z,77.62
2022-10-13T09:03:25.116Z,77.35
2022-10-13T09:06:05.007Z,77.05
2022-10-13T09:08:38.893Z,76.42
2022-10-13T09:11:06.937Z,76.37
2022-10-13T09:13:34.591Z,75.63
2022-10-13T09:16:02.279Z,75.54
2022-10-13T09:18:32.835Z,75.07
2022-10-13T09:21:11.858Z,74.88
2022-10-13T09:23:41.854Z,73.68
2022-10-13T09:26:14.448Z,73.70
2022-10-13T09:28:42.229Z,73.50
2022-10-13T09:31:17.253Z,73.28
2022-10-13T09:33:47.606Z,73.06
2022-10-13T09:36:16.539Z,72.51
2022-10-13T09:39:05.028Z,72.06
2022-10-13T09:41:34.114Z,72.10
2022-10-13T09:44:11.741Z,72.20
2022-10-13T09:46:46.911Z,71.80
2022-10-13T09:49:30.947Z,71.74
2022-10-13T09:52:03.455Z,71.17
2022-10-13T09:54:38.435Z,71.24
2022-10-13T09:57:23.209Z,70.45
2022-10-13T09:59:53.012Z,69.88
2022-10-13T10:02:33.067Z,70.27
2022-10-13T10:05:07.768Z,70.57
2022-10-13T10:07:35.524Z,70.49
2022-10-13T10:10:08.842Z,70.23
2022-10-13T10:12:40.949Z,69.98
2022-10-13T10:15:19.941Z,69.51
2022-10-13T10:17:53.717Z,69.65
2022-10-13T10:20:41.465Z,69.30
2022-10-13T10:23:15.084Z,69.62
2022-10-13T10:25:48.103Z,69.48
2022-10-13T10:28:36.055Z,69.36
2022-10-13T10:31:14.560Z,69.20
2022-10-13T10:33:51.576Z,68.90
2022-10-13T10:36:24.987Z,69.26
2022-10-13T10:39:00.216Z,68.93
2022-10-13T10:41:41.904Z,68.30
2022-10-13T10:44:12.109Z,68.35
2022-10-13T10:46:43.425Z,68.33
2022-10-13T10:49:16.407Z,67.48
2022-10-13T10:51:48.551Z,67.66
2022-10-13T10:54:27.626Z,67.18
2022-10-13T10:56:59.426Z,66.40
2022-10-13T10:59:40.096Z,65.43
2022-10-13T11:02:29.288Z,65.94
2022-10-13T11:05:03.584Z,66.17
2022-10-13T11:07:58.757Z,65.89
2022-10-13T11:10:30.441Z,65.51
2022-10-13T11:13:22.282Z,65.33
2022-10-13T11:15:50.709Z,65.61
2022-10-13T11:19:05.518Z,65.52
2022-10-13T11:22:13.355Z,64.14
2022-10-13T11:25:02.644Z,63.80
2022-10-13T11:27:42.582Z,63.48
2022-10-13T11:30:41.127Z,63.92
2022-10-13T11:33:42.074Z,63.46
2022-10-13T11:36:36.994Z,63.72
2022-10-13T11:39:21.782Z,64.13
2022-10-13T11:42:13.911Z,64.24
2022-10-13T11:44:54.124Z,64.51
2022-10-13T11:47:42.398Z,64.88
2022-10-13T11:50:21.705Z,65.09
2022-10-13T11:53:05.358Z,65.20
2022-10-13T11:55:44.258Z,65.54
2022-10-13T11:58:17.135Z,66.16
2022-10-13T12:00:56.286Z,66.07
2022-10-13T12:03:27.180Z,66.61
2022-10-13T12:05:58.107Z,66.87
2022-10-13T12:08:28.167Z,67.41
2022-10-13T12:10:58.296Z,68.19
2022-10-13T12:13:32.100Z,68.54
2022-10-13T12:16:03.217Z,68.66
2022-10-13T12:18:34.163Z,69.01
2022-10-13T12:21:04.561Z,69.11
2022-10-13T12:23:33.658Z,69.77
2022-10-13T12:26:01.760Z,69.74
2022-10-13T12:28:44.102Z,69.49
2022-10-13T12:31:19.750Z,69.90
2022-10-13T12:33:53.797Z,70.02
2022-10-13T12:36:26.362Z,70.48
2022-10-13T12:38:57.756Z,70.56
2022-10-13T12:41:28.284Z,70.51
2022-10-13T12:44:01.074Z,70.54
2022-10-13T12:46:41.759Z,70.89
2022-10-13T12:49:15.756Z,71.46
2022-10-13T12:51:44.733Z,71.78
2022-10-13T12:54:22.199Z,71.55
2022-10-13T12:56:53.811Z,71.22
2022-10-13T12:59:27.108Z,70.17
2022-10-13T13:01:58.057Z,70.19
2022-10-13T13:04:32.900Z,70.20
2022-10-13T13:07:04.865Z,71.00
2022-10-13T13:09:34.231Z,71.65
2022-10-13T13:12:22.650Z,71.29
2022-10-13T13:14:54.949Z,71.41
2022-10-13T13:17:56.689Z,71.44
2022-10-13T13:20:21.384Z,71.99
2022-10-13T13:22:50.698Z,71.86
2022-10-13T13:25:18.387Z,71.65
2022-10-13T13:27:46.080Z,71.66
2022-10-13T13:30:18.066Z,71.86
2022-10-13T13:32:45.719Z,71.84
2022-10-13T13:35:13.578Z,72.20
2022-10-13T13:37:45.353Z,72.45
2022-10-13T13:40:16.908Z,72.44
2022-10-13T13:42:44.803Z,72.66
2022-10-13T13:45:15.072Z,72.79
2022-10-13T13:47:42.776Z,72.96
2022-10-13T13:50:17.367Z,71.99
2022-10-13T13:52:45.091Z,71.88
2022-10-13T13:55:12.843Z,72.42
2022-10-13T13:57:40.695Z,72.27
2022-10-13T14:00:09.293Z,71.93
2022-10-13T14:02:38.367Z,72.31
2022-10-13T14:05:07.519Z,72.19
2022-10-13T14:07:35.420Z,72.17
2022-10-13T14:10:03.151Z,72.72
2022-10-13T14:12:31.072Z,73.44
2022-10-13T14:14:59.098Z,74.17
2022-10-13T14:17:26.832Z,74.64
2022-10-13T14:19:56.029Z,75.06
2022-10-13T14:22:23.949Z,76.24
2022-10-13T14:24:51.830Z,76.51
2022-10-13T14:27:19.489Z,76.65
2022-10-13T14:29:47.176Z,77.29
2022-10-13T14:32:14.859Z,77.84
2022-10-13T14:34:42.551Z,77.93
2022-10-13T14:37:14.739Z,78.32
2022-10-13T14:39:42.434Z,78.71
2022-10-13T14:42:10.263Z,78.87
2022-10-13T14:44:37.974Z,78.71
2022-10-13T14:47:05.768Z,79.20
2022-10-13T14:49:33.445Z,79.58
2022-10-13T14:52:01.165Z,79.82
2022-10-13T14:54:30.194Z,80.05
2022-10-13T14:57:00.527Z,80.79
2022-10-13T14:59:28.556Z,81.31
2022-10-13T15:01:56.267Z,81.43
2022-10-13T15:04:24.058Z,81.71
2022-10-13T15:06:51.988Z,82.26
2022-10-13T15:09:22.990Z,81.78
2022-10-13T15:11:58.239Z,81.93
2022-10-13T15:14:26.247Z,82.17
2022-10-13T15:16:53.951Z,82.64
2022-10-13T15:19:21.623Z,82.21
2022-10-13T15:21:49.944Z,82.50
2022-10-13T15:24:17.652Z,82.68
2022-10-13T15:26:45.299Z,83.21
2022-10-13T15:29:14.378Z,83.42
2022-10-13T15:31:42.069Z,83.80
2022-10-13T15:34:09.924Z,83.78
2022-10-13T15:36:37.640Z,83.91
2022-10-13T15:39:05.477Z,83.88
2022-10-13T15:41:33.127Z,83.94
2022-10-13T15:44:00.828Z,84.09
2022-10-13T15:46:31.467Z,84.00
2022-10-13T15:48:59.960Z,84.15
2022-10-13T15:51:27.909Z,84.43
2022-10-13T15:53:56.172Z,84.37
2022-10-13T15:56:24.114Z,84.93
2022-10-13T15:58:51.798Z,85.00
2022-10-13T16:01:19.535Z,85.00
2022-10-13T16:03:48.712Z,85.30
2022-10-13T16:06:16.394Z,85.82
2022-10-13T16:08:44.742Z,85.83
2022-10-13T16:11:14.556Z,86.34
2022-10-13T16:13:45.880Z,85.99
2022-10-13T16:16:13.528Z,86.41
2022-10-13T16:18:41.414Z,86.44
2022-10-13T16:21:15.883Z,86.09
2022-10-13T16:23:46.566Z,85.75
2022-10-13T16:26:14.653Z,86.04
2022-10-13T16:28:42.683Z,86.07
2022-10-13T16:31:13.451Z,86.62
2022-10-13T16:33:41.959Z,86.58
2022-10-13T16:36:13.310Z,86.69
2022-10-13T16:38:41.849Z,86.73
2022-10-13T16:41:14.521Z,87.21
2022-10-13T16:43:42.991Z,87.06
2022-10-13T16:46:13.407Z,87.80
2022-10-13T16:48:42.017Z,88.31
2022-10-13T16:51:14.421Z,88.19
2022-10-13T16:53:41.941Z,88.52
2022-10-13T16:56:10.121Z,88.88
2022-10-13T16:58:37.790Z,88.89
2022-10-13T17:01:08.592Z,88.82
2022-10-13T17:03:36.582Z,88.93
2022-10-13T17:06:04.806Z,88.95
2022-10-13T17:08:34.206Z,88.66
2022-10-13T17:11:02.658Z,88.49
2022-10-13T17:13:32.171Z,88.62
2022-10-13T17:18:37.400Z,88.67
2022-10-13T17:21:08.959Z,88.41
2022-10-13T17:23:38.502Z,88.53
2022-10-13T17:26:08.183Z,88.86
2022-10-13T17:28:37.286Z,88.79
2022-10-13T17:31:07.489Z,88.53
2022-10-13T17:33:36.615Z,88.40
2022-10-13T17:36:07.319Z,88.64
2022-10-13T17:38:35.408Z,88.49
2022-10-13T17:41:07.439Z,88.90
2022-10-13T17:43:37.111Z,88.85
2022-10-13T17:46:34.423Z,88.76
2022-10-13T17:48:58.355Z,88.42
2022-10-13T17:51:26.375Z,88.50
2022-10-13T17:53:54.083Z,88.40
2022-10-13T17:56:25.000Z,88.13
2022-10-13T17:58:53.355Z,88.27
2022-10-13T18:01:23.678Z,88.14
2022-10-13T18:03:54.225Z,88.74
2022-10-13T18:06:23.104Z,88.23
2022-10-13T18:08:51.363Z,88.61
2022-10-13T18:11:21.019Z,88.36
2022-10-13T18:13:50.236Z,88.70
2022-10-13T18:16:21.387Z,88.79
2022-10-13T18:18:50.112Z,88.79
2022-10-13T18:21:19.583Z,88.49
2022-10-13T18:23:47.688Z,88.93
2022-10-13T18:26:16.922Z,88.54
2022-10-13T18:28:45.758Z,88.86
2022-10-13T18:31:17.121Z,88.96
2022-10-13T18:33:45.612Z,88.61
2022-10-13T18:36:16.893Z,88.86
2022-10-13T18:38:44.637Z,88.86
2022-10-13T18:41:12.390Z,88.96
2022-10-13T18:43:40.144Z,88.96
2022-10-13T18:46:07.856Z,89.46
2022-10-13T18:48:36.955Z,89.26
2022-10-13T18:51:06.112Z,89.40
2022-10-13T18:53:35.766Z,89.29
2022-10-13T18:56:05.010Z,89.29
2022-10-13T18:58:32.782Z,89.78
2022-10-13T19:01:01.436Z,89.76
2022-10-13T19:03:29.705Z,89.94
2022-10-13T19:06:07.038Z,90.09
2022-10-13T19:08:35.733Z,90.12
2022-10-13T19:11:11.379Z,89.96
2022-10-13T19:13:39.871Z,90.29
2022-10-13T19:16:08.256Z,90.39
2022-10-13T19:18:36.813Z,90.52
2022-10-13T19:21:06.896Z,90.29
2022-10-13T19:23:34.793Z,90.61
2022-10-13T19:26:14.919Z,90.41
2022-10-13T19:28:43.139Z,90.35
2022-10-13T19:31:11.412Z,90.97
2022-10-13T19:33:44.815Z,91.04
2022-10-13T19:36:24.171Z,91.09
2022-10-13T19:38:52.059Z,91.22
2022-10-13T19:41:19.966Z,91.11
2022-10-13T19:43:47.712Z,91.26
2022-10-13T19:46:15.966Z,91.27
2022-10-13T19:48:44.715Z,91.09
2022-10-13T19:51:14.687Z,91.09
2022-10-13T19:53:42.838Z,91.34
2022-10-13T19:56:19.439Z,91.40
2022-10-13T19:58:47.141Z,91.88
2022-10-13T20:01:15.141Z,91.80
2022-10-13T20:03:43.120Z,91.76
2022-10-13T20:06:10.917Z,91.63
2022-10-13T20:08:40.099Z,92.00
2022-10-13T20:11:08.833Z,91.79
2022-10-13T20:13:37.670Z,91.87
2022-10-13T20:16:07.260Z,91.83
2022-10-13T20:18:35.924Z,91.77
2022-10-13T20:21:05.203Z,91.58
2022-10-13T20:23:33.626Z,91.59
2022-10-13T20:26:04.832Z,91.61
2022-10-13T20:28:32.708Z,91.78
2022-10-13T20:31:02.763Z,91.65
2022-10-13T20:33:30.856Z,91.66
2022-10-13T20:36:00.666Z,91.93
2022-10-13T20:38:30.216Z,91.81
2022-10-13T20:41:06.351Z,91.54
2022-10-13T20:43:34.279Z,91.59
2022-10-13T20:46:06.228Z,91.79
2022-10-13T20:48:57.791Z,91.63
2022-10-13T20:51:24.327Z,91.61
2022-10-13T20:53:52.815Z,91.83
2022-10-13T20:56:23.535Z,91.58
2022-10-13T20:58:51.852Z,91.70
2022-10-13T21:01:22.011Z,91.91
2022-10-13T21:03:52.622Z,91.69
2022-10-13T21:06:20.770Z,91.67
2022-10-13T21:08:49.182Z,91.23
2022-10-13T21:11:20.143Z,91.23
2022-10-13T21:13:50.590Z,91.07
2022-10-13T21:16:20.092Z,91.38
2022-10-13T21:18:49.698Z,91.02
2022-10-13T21:21:19.957Z,91.33
2022-10-13T21:23:50.559Z,91.44
2022-10-13T21:26:21.571Z,91.04
2022-10-13T21:28:52.016Z,90.98
2022-10-13T21:31:22.531Z,91.05
2022-10-13T21:33:50.958Z,90.93
2022-10-13T21:36:21.414Z,91.04
2022-10-13T21:38:52.582Z,90.92
2022-10-13T21:41:20.841Z,91.06
2022-10-13T21:43:50.385Z,91.25
2022-10-13T21:46:20.195Z,91.29
2022-10-13T21:48:49.419Z,91.14
2022-10-13T21:51:19.184Z,90.97
2022-10-13T21:53:49.814Z,91.25
2022-10-13T21:56:18.397Z,90.32
2022-10-13T21:58:51.749Z,90.35
2022-10-13T22:01:20.469Z,89.78
2022-10-13T22:03:49.308Z,89.51
2022-10-13T22:06:19.711Z,89.66
2022-10-13T22:08:48.674Z,89.51
2022-10-13T22:11:20.666Z,89.44
2022-10-13T22:13:48.430Z,89.49
2022-10-13T22:16:20.482Z,89.72
2022-10-13T22:18:48.597Z,89.07
2022-10-13T22:21:20.114Z,89.21
2022-10-13T22:23:47.962Z,88.93
2022-10-13T22:26:16.687Z,89.18
2022-10-13T22:28:48.138Z,89.22
2022-10-13T22:31:17.307Z,89.27
2022-10-13T22:33:45.439Z,89.15
2022-10-13T22:36:16.376Z,89.18
2022-10-13T22:38:44.284Z,89.38
2022-10-13T22:41:14.700Z,89.28
2022-10-13T22:43:44.347Z,88.97
2022-10-13T22:46:12.581Z,89.06
2022-10-13T22:48:42.076Z,88.82
2022-10-13T22:51:11.826Z,88.88
2022-10-13T22:53:39.496Z,89.14
2022-10-13T22:56:08.844Z,89.08
2022-10-13T22:58:36.752Z,89.06
2022-10-13T23:01:08.627Z,88.99
2022-10-13T23:03:36.996Z,89.16
2022-10-13T23:06:07.944Z,89.09
2022-10-13T23:08:36.170Z,88.76
2022-10-13T23:11:03.836Z,88.72
2022-10-13T23:13:31.687Z,88.56
2022-10-13T23:16:02.363Z,88.97
2022-10-13T23:18:30.091Z,88.94
2022-10-13T23:20:57.912Z,88.93
2022-10-13T23:23:27.085Z,89.25
2022-10-13T23:25:54.774Z,89.36
2022-10-13T23:28:22.538Z,89.07
2022-10-13T23:30:50.231Z,88.82
2022-10-13T23:33:17.919Z,89.21
2022-10-13T23:35:45.636Z,89.29
2022-10-13T23:38:13.340Z,89.62
2022-10-13T23:40:42.405Z,89.61
2022-10-13T23:43:10.091Z,89.72
2022-10-13T23:45:37.768Z,89.58
2022-10-13T23:48:06.053Z,89.65
2022-10-13T23:50:33.802Z,89.61
2022-10-13T23:53:01.642Z,89.67
2022-10-13T23:55:29.432Z,89.94
2022-10-13T23:57:58.413Z,89.69
